createdAt,value
2018-07-31T00:01:20.192Z,5.60
2018-07-31T00:03:49.274Z,5.37
2018-07-31T00:06:18.384Z,4.83
2018-07-31T00:08:48.255Z,5.87
2018-07-31T00:11:17.572Z,4.80
2018-07-31T00:13:46.647Z,4.60
2018-07-31T00:16:15.779Z,5.40
2018-07-31T00:18:44.927Z,5.20
2018-07-31T00:21:14.048Z,5.07
2018-07-31T00:23:43.164Z,5.50
2018-07-31T00:26:12.253Z,5.30
2018-07-31T00:28:41.425Z,5.60
2018-07-31T00:31:10.520Z,4.70
2018-07-31T00:33:39.603Z,5.47
2018-07-31T00:36:08.763Z,5.50
2018-07-31T00:38:37.857Z,5.80
2018-07-31T00:41:07.008Z,6.50
2018-07-31T00:43:36.143Z,6.00
2018-07-31T00:46:05.223Z,4.97
2018-07-31T00:48:34.325Z,5.70
2018-07-31T00:51:03.410Z,5.67
2018-07-31T00:53:32.499Z,6.00
2018-07-31T00:56:01.600Z,5.83
2018-07-31T00:58:30.712Z,5.90
2018-07-31T01:00:59.788Z,5.97
2018-07-31T01:03:28.880Z,5.43
2018-07-31T01:05:57.957Z,5.57
2018-07-31T01:08:27.084Z,4.80
2018-07-31T01:10:56.202Z,5.73
2018-07-31T01:13:25.286Z,5.77
2018-07-31T01:15:54.356Z,4.63
2018-07-31T01:18:23.432Z,5.57
2018-07-31T01:20:52.732Z,5.47
2018-07-31T01:23:21.808Z,5.17
2018-07-31T01:25:51.024Z,6.17
2018-07-31T01:28:20.084Z,5.53
2018-07-31T01:30:49.203Z,5.33
2018-07-31T01:33:18.319Z,5.47
2018-07-31T01:35:47.412Z,5.93
2018-07-31T01:38:16.484Z,5.23
2018-07-31T01:40:45.577Z,5.73
2018-07-31T01:43:14.669Z,6.20
2018-07-31T01:45:43.770Z,5.87
2018-07-31T01:48:12.845Z,6.30
2018-07-31T01:50:41.961Z,5.97
2018-07-31T01:53:11.080Z,7.17
2018-07-31T01:55:40.187Z,6.33
2018-07-31T01:58:09.284Z,6.70
2018-07-31T02:00:38.407Z,5.73
2018-07-31T02:03:07.499Z,6.90
2018-07-31T02:05:36.592Z,6.80
2018-07-31T02:08:05.928Z,6.23
2018-07-31T02:10:35.029Z,6.27
2018-07-31T02:13:04.131Z,6.23
2018-07-31T02:15:33.228Z,6.40
2018-07-31T02:18:02.312Z,7.03
2018-07-31T02:20:31.412Z,6.87
2018-07-31T02:23:00.520Z,6.10
2018-07-31T02:25:29.652Z,6.83
2018-07-31T02:27:58.787Z,6.10
2018-07-31T02:30:27.796Z,6.47
2018-07-31T02:32:56.894Z,7.00
2018-07-31T02:35:25.991Z,6.50
2018-07-31T02:37:55.089Z,6.83
2018-07-31T02:40:24.204Z,6.60
2018-07-31T02:42:53.305Z,7.67
2018-07-31T02:45:22.376Z,6.73
2018-07-31T02:47:51.492Z,6.50
2018-07-31T02:50:20.564Z,6.83
2018-07-31T02:52:49.693Z,7.10
2018-07-31T02:55:18.756Z,6.50
2018-07-31T02:57:47.844Z,7.33
2018-07-31T03:00:16.999Z,7.27
2018-07-31T03:02:46.083Z,5.73
2018-07-31T03:05:15.196Z,6.93
2018-07-31T03:07:44.313Z,7.10
2018-07-31T03:10:13.396Z,7.40
2018-07-31T03:12:42.503Z,7.20
2018-07-31T03:15:12.036Z,7.90
2018-07-31T03:17:41.129Z,7.33
2018-07-31T03:20:10.224Z,7.97
2018-07-31T03:22:39.324Z,7.50
2018-07-31T03:25:08.919Z,6.90
2018-07-31T03:27:38.021Z,7.93
2018-07-31T03:30:07.132Z,8.10
2018-07-31T03:32:36.265Z,8.17
2018-07-31T03:35:05.403Z,9.20
2018-07-31T03:37:34.497Z,8.23
2018-07-31T03:40:03.581Z,7.20
2018-07-31T03:42:32.655Z,8.30
2018-07-31T03:45:01.783Z,7.30
2018-07-31T03:47:30.851Z,7.27
2018-07-31T03:50:01.013Z,6.90
2018-07-31T03:52:30.069Z,6.90
2018-07-31T03:54:59.205Z,6.62
2018-07-31T03:57:28.305Z,7.00
2018-07-31T03:59:57.418Z,7.83
2018-07-31T04:02:26.517Z,7.50
2018-07-31T04:04:55.624Z,8.03
2018-07-31T04:07:24.748Z,8.07
2018-07-31T04:09:53.860Z,7.80
2018-07-31T04:12:22.946Z,8.30
2018-07-31T04:14:53.061Z,9.53
2018-07-31T04:17:22.194Z,9.00
2018-07-31T04:19:51.325Z,8.27
2018-07-31T04:22:20.440Z,7.70
2018-07-31T04:24:49.572Z,8.27
2018-07-31T04:27:18.678Z,10.23
2018-07-31T04:29:47.793Z,8.57
2018-07-31T04:32:16.900Z,9.50
2018-07-31T04:34:46.033Z,9.23
2018-07-31T04:37:15.114Z,10.20
2018-07-31T04:39:44.221Z,10.27
2018-07-31T04:42:13.317Z,9.63
2018-07-31T04:44:42.433Z,8.77
2018-07-31T04:47:11.526Z,9.57
2018-07-31T04:49:40.616Z,9.23
2018-07-31T04:52:09.717Z,8.43
2018-07-31T04:54:38.805Z,9.25
2018-07-31T04:57:07.928Z,9.50
2018-07-31T04:59:37.029Z,7.00
2018-07-31T05:02:06.148Z,8.50
2018-07-31T05:04:35.260Z,8.37
2018-07-31T05:07:04.402Z,7.33
2018-07-31T05:09:33.480Z,7.47
2018-07-31T05:12:02.602Z,7.10
2018-07-31T05:14:31.689Z,7.43
2018-07-31T05:17:00.840Z,6.73
2018-07-31T05:19:29.923Z,6.40
2018-07-31T05:21:59.032Z,7.12
2018-07-31T05:24:28.127Z,6.70
2018-07-31T05:26:57.243Z,6.30
2018-07-31T05:29:26.323Z,5.90
2018-07-31T05:31:55.455Z,6.20
2018-07-31T05:34:24.584Z,6.43
2018-07-31T05:36:53.686Z,5.83
2018-07-31T05:39:22.761Z,5.50
2018-07-31T05:41:51.881Z,5.40
2018-07-31T05:44:20.988Z,5.65
2018-07-31T05:46:50.093Z,5.80
2018-07-31T05:49:19.193Z,5.85
2018-07-31T05:51:48.336Z,5.60
2018-07-31T05:54:17.429Z,6.23
2018-07-31T05:56:46.532Z,6.37
2018-07-31T05:59:15.604Z,6.70
2018-07-31T06:01:44.732Z,6.83
2018-07-31T06:04:13.817Z,6.07
2018-07-31T06:06:42.893Z,5.70
2018-07-31T06:09:12.068Z,6.13
2018-07-31T06:11:41.168Z,6.87
2018-07-31T06:14:10.297Z,6.15
2018-07-31T06:16:40.200Z,6.70
2018-07-31T06:19:09.468Z,5.83
2018-07-31T06:21:38.704Z,6.58
2018-07-31T06:24:07.821Z,5.53
2018-07-31T06:26:36.908Z,6.10
2018-07-31T06:29:06.067Z,6.05
2018-07-31T06:31:35.172Z,4.97
2018-07-31T06:34:04.260Z,5.65
2018-07-31T06:36:33.364Z,5.10
2018-07-31T06:39:02.649Z,5.20
2018-07-31T06:41:31.744Z,5.83
2018-07-31T06:44:00.943Z,6.00
2018-07-31T06:46:30.080Z,5.73
2018-07-31T06:48:59.189Z,5.12
2018-07-31T06:51:28.293Z,6.12
2018-07-31T06:53:57.412Z,5.87
2018-07-31T06:56:26.553Z,5.75
2018-07-31T06:58:56.056Z,5.85
2018-07-31T07:01:25.200Z,5.95
2018-07-31T07:03:54.327Z,5.30
2018-07-31T07:06:24.449Z,5.50
2018-07-31T07:08:53.640Z,5.33
2018-07-31T07:11:22.740Z,5.87
2018-07-31T07:13:51.856Z,5.33
2018-07-31T07:16:20.987Z,5.50
2018-07-31T07:18:50.073Z,5.47
2018-07-31T07:21:19.180Z,4.90
2018-07-31T07:23:48.691Z,5.67
2018-07-31T07:26:17.844Z,5.50
2018-07-31T07:28:46.956Z,6.60
2018-07-31T07:31:16.097Z,5.63
2018-07-31T07:33:45.217Z,5.63
2018-07-31T07:36:14.302Z,4.40
2018-07-31T07:38:43.434Z,5.57
2018-07-31T07:41:12.859Z,4.83
2018-07-31T07:43:42.645Z,4.73
2018-07-31T07:46:11.761Z,5.30
2018-07-31T07:48:40.906Z,4.37
2018-07-31T07:51:10.021Z,5.22
2018-07-31T07:53:39.121Z,4.50
2018-07-31T07:56:08.257Z,4.60
2018-07-31T07:58:37.359Z,5.20
2018-07-31T08:01:06.613Z,5.00
2018-07-31T08:03:35.702Z,4.83
2018-07-31T08:06:04.792Z,5.30
2018-07-31T08:08:34.689Z,5.20
2018-07-31T08:11:03.935Z,4.57
2018-07-31T08:13:33.037Z,5.12
2018-07-31T08:16:02.113Z,4.20
2018-07-31T08:18:31.232Z,4.50
2018-07-31T08:21:00.520Z,4.83
2018-07-31T08:23:29.625Z,5.00
2018-07-31T08:25:58.717Z,5.50
2018-07-31T08:28:27.816Z,6.00
2018-07-31T08:30:56.920Z,5.67
2018-07-31T08:33:26.102Z,6.00
2018-07-31T08:35:55.519Z,6.10
2018-07-31T08:38:24.630Z,4.90
2018-07-31T08:40:53.839Z,5.80
2018-07-31T08:43:22.953Z,5.80
2018-07-31T08:45:52.508Z,5.27
2018-07-31T08:48:21.613Z,6.63
2018-07-31T08:50:50.756Z,5.90
2018-07-31T08:53:19.868Z,4.70
2018-07-31T08:55:48.986Z,5.33
2018-07-31T08:58:18.059Z,5.53
2018-07-31T09:00:47.168Z,6.77
2018-07-31T09:03:16.258Z,4.80
2018-07-31T09:05:45.412Z,5.90
2018-07-31T09:08:14.570Z,5.10
2018-07-31T09:10:43.625Z,5.43
2018-07-31T09:13:12.709Z,5.47
2018-07-31T09:15:41.813Z,5.27
2018-07-31T09:18:10.909Z,5.37
2018-07-31T09:20:40.029Z,5.60
2018-07-31T09:23:09.120Z,6.15
2018-07-31T09:25:43.579Z,6.20
2018-07-31T09:28:12.948Z,5.03
2018-07-31T09:30:47.508Z,5.33
2018-07-31T09:33:16.534Z,5.00
2018-07-31T09:35:45.890Z,5.10
2018-07-31T09:38:15.006Z,5.53
2018-07-31T09:40:44.117Z,4.83
2018-07-31T09:43:13.216Z,5.10
2018-07-31T09:45:42.329Z,4.90
2018-07-31T09:48:11.420Z,4.80
2018-07-31T09:50:40.565Z,4.37
2018-07-31T09:53:09.612Z,4.37
2018-07-31T09:55:38.760Z,3.70
2018-07-31T09:58:07.863Z,3.80
2018-07-31T10:00:42.324Z,4.40
2018-07-31T10:03:11.405Z,3.70
2018-07-31T10:05:40.520Z,3.83
2018-07-31T10:08:09.776Z,4.00
2018-07-31T10:10:38.865Z,5.10
2018-07-31T10:13:08.503Z,3.60
2018-07-31T10:15:37.595Z,4.80
2018-07-31T10:18:06.789Z,4.73
2018-07-31T10:20:35.911Z,4.33
2018-07-31T10:23:05.025Z,3.87
2018-07-31T10:25:34.123Z,4.90
2018-07-31T10:28:03.260Z,4.28
2018-07-31T10:30:33.359Z,3.92
2018-07-31T10:33:02.908Z,3.83
2018-07-31T10:35:31.996Z,4.00
2018-07-31T10:38:01.171Z,3.97
2018-07-31T10:40:30.245Z,3.97
2018-07-31T10:42:59.413Z,3.93
2018-07-31T10:45:28.522Z,4.40
2018-07-31T10:47:57.620Z,4.03
2018-07-31T10:50:26.704Z,4.20
2018-07-31T10:52:55.817Z,3.80
2018-07-31T10:55:24.890Z,4.93
2018-07-31T10:57:54.005Z,3.80
2018-07-31T11:00:24.106Z,3.90
2018-07-31T11:02:53.301Z,4.00
2018-07-31T11:05:22.304Z,4.23
2018-07-31T11:07:53.561Z,4.27
2018-07-31T11:10:22.731Z,4.25
2018-07-31T11:12:51.788Z,3.93
2018-07-31T11:15:22.760Z,3.40
2018-07-31T11:17:52.335Z,4.08
2018-07-31T11:20:21.568Z,3.62
2018-07-31T11:22:50.732Z,3.47
2018-07-31T11:25:20.164Z,4.67
2018-07-31T11:27:49.349Z,3.70
2018-07-31T11:30:18.585Z,2.93
2018-07-31T11:32:51.334Z,3.30
2018-07-31T11:35:20.945Z,2.70
2018-07-31T11:37:50.909Z,3.37
2018-07-31T11:40:20.012Z,2.80
2018-07-31T11:42:49.236Z,3.30
2018-07-31T11:45:21.806Z,3.67
2018-07-31T11:47:51.582Z,2.72
2018-07-31T11:50:20.839Z,2.97
2018-07-31T11:52:49.927Z,2.83
2018-07-31T11:55:19.852Z,2.90
2018-07-31T11:57:50.610Z,2.93
2018-07-31T12:00:19.740Z,3.53
2018-07-31T12:02:48.865Z,2.80
2018-07-31T12:05:17.971Z,2.37
2018-07-31T12:07:47.089Z,2.70
2018-07-31T12:10:16.205Z,2.93
2018-07-31T12:12:45.308Z,2.77
2018-07-31T12:15:14.421Z,2.50
2018-07-31T12:17:43.533Z,2.93
2018-07-31T12:20:12.632Z,2.67
2018-07-31T12:22:41.732Z,2.97
2018-07-31T12:25:10.849Z,2.47
2018-07-31T12:27:39.973Z,3.43
2018-07-31T12:30:10.259Z,2.90
2018-07-31T12:32:40.319Z,2.67
2018-07-31T12:35:09.709Z,2.93
2018-07-31T12:37:38.847Z,2.90
2018-07-31T12:40:08.096Z,3.00
2018-07-31T12:42:37.245Z,2.70
2018-07-31T12:45:06.341Z,2.50
2018-07-31T12:47:35.511Z,2.45
2018-07-31T12:50:05.024Z,2.77
2018-07-31T12:52:35.156Z,3.25
2018-07-31T12:55:04.376Z,2.97
2018-07-31T12:57:33.497Z,2.60
2018-07-31T13:00:02.672Z,2.83
2018-07-31T13:02:31.752Z,2.50
2018-07-31T13:05:00.832Z,2.70
2018-07-31T13:07:30.011Z,2.87
2018-07-31T13:09:59.088Z,2.25
2018-07-31T13:12:28.185Z,2.87
2018-07-31T13:14:57.277Z,3.50
2018-07-31T13:17:26.401Z,2.67
2018-07-31T13:19:55.505Z,2.57
2018-07-31T13:22:24.656Z,2.63
2018-07-31T13:24:53.745Z,2.30
2018-07-31T13:27:22.834Z,2.37
2018-07-31T13:29:51.939Z,1.93
2018-07-31T13:32:21.064Z,2.53
2018-07-31T13:34:50.191Z,2.50
2018-07-31T13:37:19.303Z,2.70
2018-07-31T13:39:48.395Z,2.43
2018-07-31T13:42:17.492Z,2.20
2018-07-31T13:44:46.743Z,2.43
2018-07-31T13:47:15.849Z,2.47
2018-07-31T13:49:44.957Z,2.40
2018-07-31T13:52:14.061Z,1.98
2018-07-31T13:54:43.160Z,2.52
2018-07-31T13:57:12.268Z,2.42
2018-07-31T13:59:41.377Z,2.50
2018-07-31T14:02:10.465Z,2.50
2018-07-31T14:04:39.725Z,2.27
2018-07-31T14:07:08.913Z,2.73
2018-07-31T14:09:37.957Z,2.67
2018-07-31T14:12:07.122Z,2.37
2018-07-31T14:14:36.218Z,2.13
2018-07-31T14:17:05.305Z,2.00
2018-07-31T14:19:34.408Z,2.27
2018-07-31T14:22:03.488Z,2.00
2018-07-31T14:24:32.710Z,2.13
2018-07-31T14:27:01.829Z,2.67
2018-07-31T14:29:31.360Z,2.30
2018-07-31T14:32:00.472Z,2.20
2018-07-31T14:34:29.587Z,1.87
2018-07-31T14:36:58.710Z,2.37
2018-07-31T14:39:27.816Z,2.13
2018-07-31T14:41:56.945Z,2.20
2018-07-31T14:44:26.036Z,2.37
2018-07-31T14:46:55.730Z,2.57
2018-07-31T14:49:24.944Z,2.05
2018-07-31T14:51:54.880Z,2.30
2018-07-31T14:54:23.966Z,2.43
2018-07-31T14:56:53.099Z,2.33
2018-07-31T14:59:22.196Z,2.13
2018-07-31T15:01:51.312Z,2.20
2018-07-31T15:04:20.396Z,2.30
2018-07-31T15:06:49.521Z,2.02
2018-07-31T15:09:18.616Z,1.93
2018-07-31T15:11:47.857Z,1.90
2018-07-31T15:14:16.965Z,2.22
2018-07-31T15:16:46.072Z,2.67
2018-07-31T15:19:15.148Z,2.10
2018-07-31T15:21:44.250Z,2.10
2018-07-31T15:24:13.345Z,1.90
2018-07-31T15:26:42.461Z,2.27
2018-07-31T15:29:11.547Z,1.90
2018-07-31T15:31:40.665Z,2.23
2018-07-31T15:34:09.768Z,2.12
2018-07-31T15:36:38.850Z,2.60
2018-07-31T15:39:11.633Z,2.10
2018-07-31T15:41:41.062Z,1.77
2018-07-31T15:44:10.433Z,2.03
2018-07-31T15:46:39.512Z,2.67
2018-07-31T15:49:08.652Z,1.93
2018-07-31T15:51:37.746Z,2.07
2018-07-31T15:54:06.993Z,2.30
2018-07-31T15:56:36.064Z,2.40
2018-07-31T15:59:05.597Z,2.80
2018-07-31T16:01:34.746Z,2.12
2018-07-31T16:04:03.832Z,2.07
2018-07-31T16:06:32.943Z,1.80
2018-07-31T16:09:02.079Z,2.17
2018-07-31T16:11:31.161Z,2.10
2018-07-31T16:14:00.292Z,2.43
2018-07-31T16:16:29.361Z,2.73
2018-07-31T16:18:58.461Z,2.63
2018-07-31T16:21:27.557Z,2.85
2018-07-31T16:23:56.703Z,2.27
2018-07-31T16:26:25.820Z,2.30
2018-07-31T16:28:55.037Z,2.10
2018-07-31T16:31:24.920Z,2.80
2018-07-31T16:33:54.032Z,2.43
2018-07-31T16:36:23.144Z,2.30
2018-07-31T16:38:53.484Z,1.90
2018-07-31T16:41:24.200Z,1.80
2018-07-31T16:43:54.310Z,2.67
2018-07-31T16:46:24.368Z,1.90
2018-07-31T16:48:54.298Z,1.87
2018-07-31T16:51:24.277Z,1.82
2018-07-31T16:53:53.449Z,2.30
2018-07-31T16:56:22.548Z,2.42
2018-07-31T16:58:51.712Z,2.20
2018-07-31T17:01:20.808Z,2.20
2018-07-31T17:03:49.993Z,2.40
2018-07-31T17:06:19.152Z,2.27
2018-07-31T17:08:48.248Z,2.70
2018-07-31T17:11:17.363Z,1.93
2018-07-31T17:13:46.450Z,2.47
2018-07-31T17:16:15.650Z,2.30
2018-07-31T17:18:44.772Z,2.98
2018-07-31T17:21:13.889Z,2.40
2018-07-31T17:23:42.974Z,2.90
2018-07-31T17:26:12.420Z,2.13
2018-07-31T17:28:41.928Z,2.05
2018-07-31T17:31:11.040Z,2.33
2018-07-31T17:33:40.114Z,2.43
2018-07-31T17:36:09.240Z,3.50
2018-07-31T17:38:38.337Z,2.30
2018-07-31T17:41:07.445Z,2.52
2018-07-31T17:43:36.621Z,2.72
2018-07-31T17:46:05.749Z,2.30
2018-07-31T17:48:34.896Z,2.03
2018-07-31T17:51:03.945Z,2.40
2018-07-31T17:53:33.080Z,1.97
2018-07-31T17:56:02.193Z,2.70
2018-07-31T17:58:32.328Z,2.50
2018-07-31T18:01:01.744Z,3.13
2018-07-31T18:03:31.325Z,2.57
2018-07-31T18:06:00.524Z,2.70
2018-07-31T18:08:29.719Z,2.63
2018-07-31T18:10:58.807Z,3.00
2018-07-31T18:13:28.033Z,2.87
2018-07-31T18:15:57.237Z,2.60
2018-07-31T18:18:28.032Z,2.33
2018-07-31T18:20:57.508Z,2.40
2018-07-31T18:23:26.817Z,2.30
2018-07-31T18:25:56.772Z,2.35
2018-07-31T18:28:26.192Z,2.60
2018-07-31T18:30:55.377Z,2.67
2018-07-31T18:33:24.473Z,2.60
2018-07-31T18:35:53.564Z,2.50
2018-07-31T18:38:22.705Z,2.30
2018-07-31T18:40:51.825Z,3.63
2018-07-31T18:43:21.024Z,2.72
2018-07-31T18:45:50.124Z,2.60
2018-07-31T18:48:19.236Z,2.73
2018-07-31T18:50:48.409Z,2.40
2018-07-31T18:53:17.640Z,2.90
2018-07-31T18:55:46.782Z,3.20
2018-07-31T18:58:15.876Z,3.30
2018-07-31T19:00:44.992Z,2.60
2018-07-31T19:03:14.162Z,3.20
2018-07-31T19:05:43.258Z,2.60
2018-07-31T19:08:12.446Z,2.60
2018-07-31T19:10:41.644Z,3.27
2018-07-31T19:13:10.759Z,2.90
2018-07-31T19:15:39.876Z,3.20
2018-07-31T19:18:08.977Z,2.80
2018-07-31T19:20:38.082Z,3.30
2018-07-31T19:23:07.204Z,3.90
2018-07-31T19:25:36.305Z,3.27
2018-07-31T19:28:05.560Z,3.37
2018-07-31T19:30:34.607Z,3.47
2018-07-31T19:33:03.730Z,3.10
2018-07-31T19:35:32.849Z,2.80
2018-07-31T19:38:01.980Z,3.10
2018-07-31T19:40:31.159Z,2.90
2018-07-31T19:43:00.225Z,3.23
2018-07-31T19:45:29.352Z,3.20
2018-07-31T19:47:58.480Z,3.08
2018-07-31T19:50:27.600Z,3.33
2018-07-31T19:52:56.676Z,2.95
2018-07-31T19:55:25.777Z,3.58
2018-07-31T19:57:54.872Z,3.47
2018-07-31T20:00:23.957Z,3.10
2018-07-31T20:02:53.096Z,2.80
2018-07-31T20:05:22.197Z,2.70
2018-07-31T20:07:51.332Z,3.17
2018-07-31T20:10:20.447Z,2.90
2018-07-31T20:12:49.544Z,2.83
2018-07-31T20:15:18.665Z,3.85
2018-07-31T20:17:47.825Z,2.67
2018-07-31T20:20:16.912Z,2.77
2018-07-31T20:22:46.016Z,2.87
2018-07-31T20:25:15.113Z,3.50
2018-07-31T20:27:44.292Z,3.13
2018-07-31T20:30:13.402Z,2.80
2018-07-31T20:32:42.520Z,2.77
2018-07-31T20:35:11.624Z,3.45
2018-07-31T20:37:41.656Z,3.15
2018-07-31T20:40:14.611Z,3.60
2018-07-31T20:42:43.889Z,3.20
2018-07-31T20:45:12.991Z,2.40
2018-07-31T20:47:42.139Z,3.20
2018-07-31T20:50:11.228Z,3.37
2018-07-31T20:52:41.020Z,2.60
2018-07-31T20:55:10.199Z,3.33
2018-07-31T20:57:39.288Z,2.50
2018-07-31T21:00:08.444Z,2.65
2018-07-31T21:02:37.552Z,2.80
2018-07-31T21:05:06.721Z,2.58
2018-07-31T21:07:35.817Z,3.03
2018-07-31T21:10:05.637Z,2.15
2018-07-31T21:12:34.764Z,2.13
2018-07-31T21:15:03.920Z,2.43
2018-07-31T21:17:33.642Z,2.47
2018-07-31T21:20:02.741Z,1.80
2018-07-31T21:22:31.809Z,2.20
2018-07-31T21:25:00.918Z,2.20
2018-07-31T21:27:29.995Z,2.03
2018-07-31T21:29:59.107Z,2.37
2018-07-31T21:32:28.180Z,2.30
2018-07-31T21:34:57.265Z,1.80
2018-07-31T21:37:26.333Z,1.87
2018-07-31T21:39:55.433Z,1.70
2018-07-31T21:42:24.520Z,2.00
2018-07-31T21:44:53.612Z,2.20
2018-07-31T21:47:22.708Z,1.70
2018-07-31T21:49:51.871Z,1.80
2018-07-31T21:52:20.983Z,1.80
2018-07-31T21:54:50.109Z,2.27
2018-07-31T21:57:19.179Z,2.13
2018-07-31T21:59:48.312Z,2.17
2018-07-31T22:02:17.404Z,2.20
2018-07-31T22:04:46.488Z,2.50
2018-07-31T22:07:15.612Z,2.40
2018-07-31T22:09:45.531Z,1.67
2018-07-31T22:12:14.608Z,1.93
2018-07-31T22:14:43.740Z,2.23
2018-07-31T22:17:12.817Z,2.00
2018-07-31T22:19:41.940Z,2.10
2018-07-31T22:22:11.053Z,2.63
2018-07-31T22:24:40.226Z,2.00
2018-07-31T22:27:09.261Z,1.60
2018-07-31T22:29:38.376Z,2.20
2018-07-31T22:32:07.537Z,2.10
2018-07-31T22:34:36.612Z,2.20
2018-07-31T22:37:05.727Z,2.27
2018-07-31T22:39:34.809Z,3.00
2018-07-31T22:42:03.921Z,2.70
2018-07-31T22:44:33.000Z,3.33
2018-07-31T22:47:02.116Z,2.80
2018-07-31T22:49:31.184Z,2.93
2018-07-31T22:52:00.288Z,3.70
2018-07-31T22:54:29.363Z,2.63
2018-07-31T22:56:58.456Z,2.67
2018-07-31T22:59:27.540Z,2.77
2018-07-31T23:01:56.652Z,2.80
2018-07-31T23:04:25.749Z,2.97
2018-07-31T23:06:54.843Z,2.93
2018-07-31T23:09:23.975Z,2.80
2018-07-31T23:11:53.092Z,3.63
2018-07-31T23:14:22.181Z,2.03
2018-07-31T23:16:51.267Z,3.20
2018-07-31T23:19:20.388Z,3.20
2018-07-31T23:21:49.504Z,2.90
2018-07-31T23:24:18.569Z,2.90
2018-07-31T23:26:47.660Z,2.57
2018-07-31T23:29:16.735Z,3.10
2018-07-31T23:31:45.840Z,2.80
2018-07-31T23:34:14.912Z,2.50
2018-07-31T23:36:44.011Z,2.60
2018-07-31T23:39:13.089Z,1.83
2018-07-31T23:41:42.192Z,2.20
2018-07-31T23:44:11.259Z,2.10
2018-07-31T23:46:40.364Z,2.47
2018-07-31T23:49:09.439Z,2.10
2018-07-31T23:51:38.556Z,2.30
2018-07-31T23:54:07.628Z,2.20
2018-07-31T23:56:36.721Z,1.67
2018-07-31T23:59:05.818Z,1.90
